Plattsmouth, Nebraska
Current Conditions -  °F | °C
As of 9:35 AM on Thursday 23 Oct 2014 (Local Time) from KPMV Reporting Station
Overcast Overcast  
Wind Chill: 60°   Ceiling: 900
Heat Index: 60°   Visibility: 10mi
Dew Point: 57°   Wind: 3mph
Humidity: 91%   Direction: 260°W
Pressure: 30.07"   Gusts: NA
Location:  41.01°N, 95.88°W
Report Text: KPMV 231435Z AUTO 26003KT 10SM OVC009 16/14 A3007 RMK AO2 T01550140
Loading
Personal Weather Stations






























Interactive Weather Map
Tropical Storm Tracking
New forecast layout! Learn more

10-Day Weather Forecast

Advertisements
Track Severe Weather on mobile